ANA583 RJOC-RJOS
Flight info
| Callsign | ANA583 |
|---|---|
| Flight time | 0h 34m |
| Altitude | 29000 |
| Route | TSUNO TOSAR DATIS AIZEN OS150 BIZAN |
| Aircraft | B789/H-SDE1E2E3FGHIJ2J3J4J5M1RWXY/LB1D1 |
Departure
| Time | 2026-05-07 13:39 |
|---|---|
| Airport | Izumo Enmusubi Airport (RJOC) |
Arrival
| Time | 2026-05-07 14:13 |
|---|---|
| Airport | Tokushima Awaodori Airport / JMSDF Tokushima Air Base (RJOS) |
| Time | Latitude | Longitude | Altitude | Speed | Heading |
|---|---|---|---|---|---|
| 2026-05-07 13:11 | 35.41417 | 132.88615 | 15 ft | 0 kts | 329° |
| 2026-05-07 13:32 | 35.41395 | 132.88629 | 16 ft | 4 kts | 335° |
| 2026-05-07 13:32 | 35.41377 | 132.88642 | 17 ft | 3 kts | 300° |
| 2026-05-07 13:32 | 35.41368 | 132.88665 | 15 ft | 4 kts | 277° |
| 2026-05-07 13:32 | 35.41371 | 132.88693 | 18 ft | 4 kts | 243° |
| 2026-05-07 13:33 | 35.41377 | 132.88707 | 17 ft | 6 kts | 236° |
| 2026-05-07 13:33 | 35.41376 | 132.88704 | 17 ft | 0 kts | 235° |
| 2026-05-07 13:34 | 35.41356 | 132.88679 | 15 ft | 6 kts | 218° |
| 2026-05-07 13:34 | 35.41310 | 132.88669 | 15 ft | 6 kts | 160° |
| 2026-05-07 13:35 | 35.41269 | 132.88693 | 16 ft | 8 kts | 149° |
| 2026-05-07 13:35 | 35.41262 | 132.88769 | 17 ft | 13 kts | 64° |
| 2026-05-07 13:35 | 35.41296 | 132.88844 | 15 ft | 17 kts | 60° |
| 2026-05-07 13:35 | 35.41364 | 132.88986 | 16 ft | 22 kts | 59° |
| 2026-05-07 13:36 | 35.41449 | 132.89160 | 14 ft | 28 kts | 59° |
| 2026-05-07 13:36 | 35.41555 | 132.89378 | 16 ft | 30 kts | 59° |
| 2026-05-07 13:36 | 35.41661 | 132.89597 | 19 ft | 29 kts | 59° |
| 2026-05-07 13:36 | 35.41751 | 132.89784 | 31 ft | 15 kts | 59° |
| 2026-05-07 13:37 | 35.41821 | 132.89866 | 27 ft | 13 kts | 40° |
| 2026-05-07 13:37 | 35.41828 | 132.89889 | 29 ft | 1 kts | 103° |
| 2026-05-07 13:37 | 35.41819 | 132.89895 | 29 ft | 2 kts | 163° |
| 2026-05-07 13:37 | 35.41801 | 132.89882 | 28 ft | 6 kts | 221° |
| 2026-05-07 13:38 | 35.41775 | 132.89834 | 25 ft | 0 kts | 239° |
| 2026-05-07 13:38 | 35.41757 | 132.89796 | 31 ft | 22 kts | 239° |
| 2026-05-07 13:38 | 35.41518 | 132.89304 | 15 ft | 114 kts | 239° |
| 2026-05-07 13:38 | 35.40999 | 132.88224 | 331 ft | 154 kts | 243° |
| 2026-05-07 13:39 | 35.40501 | 132.87175 | 1052 ft | 145 kts | 238° |
| 2026-05-07 13:39 | 35.39957 | 132.86061 | 1678 ft | 154 kts | 238° |
| 2026-05-07 13:39 | 35.39518 | 132.84844 | 2341 ft | 165 kts | 262° |
| 2026-05-07 13:39 | 35.39941 | 132.83487 | 2980 ft | 186 kts | 301° |
| 2026-05-07 13:40 | 35.40903 | 132.82319 | 3504 ft | 207 kts | 317° |
| 2026-05-07 13:40 | 35.42361 | 132.81799 | 3985 ft | 238 kts | 352° |
| 2026-05-07 13:40 | 35.44024 | 132.82464 | 4348 ft | 270 kts | 30° |
| 2026-05-07 13:40 | 35.45226 | 132.84293 | 4849 ft | 286 kts | 66° |
| 2026-05-07 13:41 | 35.45540 | 132.86744 | 5380 ft | 296 kts | 96° |
| 2026-05-07 13:41 | 35.45377 | 132.89234 | 6451 ft | 293 kts | 97° |
| 2026-05-07 13:41 | 35.45316 | 132.91749 | 7284 ft | 299 kts | 90° |
| 2026-05-07 13:41 | 35.45636 | 132.94299 | 8098 ft | 306 kts | 77° |
| 2026-05-07 13:42 | 35.46220 | 132.96815 | 9008 ft | 309 kts | 73° |
| 2026-05-07 13:42 | 35.47119 | 132.99233 | 9684 ft | 317 kts | 54° |
| 2026-05-07 13:42 | 35.48456 | 133.01392 | 10413 ft | 323 kts | 51° |
| 2026-05-07 13:42 | 35.49829 | 133.03649 | 10900 ft | 338 kts | 53° |
| 2026-05-07 13:43 | 35.51210 | 133.06071 | 11420 ft | 353 kts | 54° |
| 2026-05-07 13:43 | 35.52401 | 133.08773 | 11806 ft | 372 kts | 72° |
| 2026-05-07 13:43 | 35.52752 | 133.11973 | 12219 ft | 386 kts | 94° |
| 2026-05-07 13:43 | 35.52328 | 133.15276 | 12716 ft | 398 kts | 106° |
| 2026-05-07 13:44 | 35.51653 | 133.18574 | 13247 ft | 409 kts | 106° |
| 2026-05-07 13:44 | 35.51035 | 133.22015 | 13952 ft | 417 kts | 105° |
| 2026-05-07 13:44 | 35.50423 | 133.25512 | 14615 ft | 422 kts | 106° |
| 2026-05-07 13:44 | 35.49763 | 133.29036 | 15311 ft | 427 kts | 107° |
| 2026-05-07 13:45 | 35.49074 | 133.32605 | 16008 ft | 432 kts | 108° |
| 2026-05-07 13:45 | 35.48394 | 133.36216 | 16677 ft | 438 kts | 107° |
| 2026-05-07 13:45 | 35.47717 | 133.39885 | 17332 ft | 443 kts | 108° |
| 2026-05-07 13:45 | 35.47025 | 133.43586 | 17979 ft | 447 kts | 108° |
| 2026-05-07 13:46 | 35.46317 | 133.47321 | 18583 ft | 452 kts | 108° |
| 2026-05-07 13:46 | 35.45602 | 133.51095 | 19141 ft | 457 kts | 108° |
| 2026-05-07 13:46 | 35.44884 | 133.54906 | 19709 ft | 461 kts | 108° |
| 2026-05-07 13:46 | 35.44156 | 133.58765 | 20257 ft | 466 kts | 108° |
| 2026-05-07 13:47 | 35.43417 | 133.62652 | 20819 ft | 471 kts | 108° |
| 2026-05-07 13:47 | 35.42669 | 133.66578 | 21371 ft | 475 kts | 107° |
| 2026-05-07 13:47 | 35.41917 | 133.70537 | 21942 ft | 478 kts | 107° |
| 2026-05-07 13:47 | 35.41158 | 133.74524 | 22503 ft | 482 kts | 107° |
| 2026-05-07 13:48 | 35.40394 | 133.78524 | 23173 ft | 482 kts | 107° |
| 2026-05-07 13:48 | 35.39627 | 133.82527 | 23787 ft | 482 kts | 107° |
| 2026-05-07 13:48 | 35.38861 | 133.86523 | 24390 ft | 481 kts | 107° |
| 2026-05-07 13:48 | 35.38096 | 133.90506 | 25041 ft | 479 kts | 107° |
| 2026-05-07 13:49 | 35.37333 | 133.94473 | 25694 ft | 477 kts | 107° |
| 2026-05-07 13:49 | 35.36569 | 133.98425 | 26307 ft | 476 kts | 107° |
| 2026-05-07 13:49 | 35.35807 | 134.02363 | 26959 ft | 474 kts | 107° |
| 2026-05-07 13:49 | 35.34798 | 134.06180 | 27469 ft | 468 kts | 118° |
| 2026-05-07 13:50 | 35.33218 | 134.09614 | 28075 ft | 459 kts | 130° |
| 2026-05-07 13:50 | 35.31164 | 134.12576 | 28451 ft | 454 kts | 141° |
| 2026-05-07 13:50 | 35.28734 | 134.14971 | 28707 ft | 444 kts | 152° |
| 2026-05-07 13:50 | 35.26049 | 134.16739 | 28857 ft | 434 kts | 163° |
| 2026-05-07 13:51 | 35.23208 | 134.17863 | 28881 ft | 426 kts | 173° |
| 2026-05-07 13:51 | 35.17426 | 134.19265 | 28827 ft | 422 kts | 175° |
| 2026-05-07 13:52 | 35.11683 | 134.20700 | 28940 ft | 425 kts | 174° |
| 2026-05-07 13:52 | 35.05908 | 134.22122 | 28929 ft | 423 kts | 174° |
| 2026-05-07 13:53 | 35.00123 | 134.23549 | 28917 ft | 426 kts | 174° |
| 2026-05-07 13:53 | 34.94322 | 134.24980 | 28919 ft | 425 kts | 174° |
| 2026-05-07 13:54 | 34.88526 | 134.26403 | 28921 ft | 425 kts | 174° |
| 2026-05-07 13:54 | 34.82729 | 134.27828 | 28928 ft | 426 kts | 175° |
| 2026-05-07 13:55 | 34.76923 | 134.29252 | 28926 ft | 425 kts | 174° |
| 2026-05-07 13:55 | 34.71161 | 134.31007 | 28928 ft | 426 kts | 171° |
| 2026-05-07 13:55 | 34.68302 | 134.31915 | 28730 ft | 425 kts | 172° |
| 2026-05-07 13:56 | 34.65430 | 134.32810 | 28236 ft | 426 kts | 172° |
| 2026-05-07 13:56 | 34.62570 | 134.33697 | 27740 ft | 423 kts | 172° |
| 2026-05-07 13:56 | 34.59723 | 134.34558 | 27256 ft | 419 kts | 172° |
| 2026-05-07 13:56 | 34.56896 | 134.35388 | 26786 ft | 417 kts | 173° |
| 2026-05-07 13:57 | 34.54078 | 134.36256 | 26330 ft | 418 kts | 172° |
| 2026-05-07 13:57 | 34.51275 | 134.37225 | 25875 ft | 423 kts | 167° |
| 2026-05-07 13:57 | 34.48581 | 134.38752 | 25379 ft | 429 kts | 158° |
| 2026-05-07 13:57 | 34.46025 | 134.40596 | 24942 ft | 425 kts | 154° |
| 2026-05-07 13:58 | 34.43563 | 134.42536 | 24498 ft | 419 kts | 153° |
| 2026-05-07 13:58 | 34.41164 | 134.44489 | 24064 ft | 413 kts | 152° |
| 2026-05-07 13:58 | 34.38806 | 134.46431 | 23643 ft | 407 kts | 152° |
| 2026-05-07 13:58 | 34.36489 | 134.48352 | 23163 ft | 401 kts | 152° |
| 2026-05-07 13:59 | 34.34208 | 134.50250 | 22655 ft | 395 kts | 152° |
| 2026-05-07 13:59 | 34.31959 | 134.52123 | 22169 ft | 390 kts | 152° |
| 2026-05-07 13:59 | 34.29740 | 134.53970 | 21673 ft | 385 kts | 152° |
| 2026-05-07 13:59 | 34.27570 | 134.55778 | 21201 ft | 373 kts | 152° |
| 2026-05-07 14:00 | 34.25461 | 134.57540 | 20698 ft | 364 kts | 152° |
| 2026-05-07 14:00 | 34.23402 | 134.59263 | 20202 ft | 356 kts | 152° |
| 2026-05-07 14:00 | 34.21387 | 134.60950 | 19707 ft | 349 kts | 152° |
| 2026-05-07 14:00 | 34.19409 | 134.62607 | 19213 ft | 344 kts | 152° |
| 2026-05-07 14:01 | 34.17444 | 134.64238 | 18749 ft | 344 kts | 152° |
| 2026-05-07 14:01 | 34.15455 | 134.65874 | 18300 ft | 347 kts | 152° |
| 2026-05-07 14:01 | 34.13452 | 134.67509 | 17798 ft | 348 kts | 152° |
| 2026-05-07 14:01 | 34.11446 | 134.69137 | 17270 ft | 348 kts | 152° |
| 2026-05-07 14:02 | 34.09461 | 134.70740 | 16763 ft | 348 kts | 152° |
| 2026-05-07 14:02 | 34.07421 | 134.72379 | 16238 ft | 348 kts | 152° |
| 2026-05-07 14:02 | 34.05403 | 134.73994 | 15749 ft | 348 kts | 152° |
| 2026-05-07 14:02 | 34.03410 | 134.75581 | 15260 ft | 348 kts | 152° |
| 2026-05-07 14:03 | 34.01385 | 134.77185 | 14783 ft | 349 kts | 152° |
| 2026-05-07 14:03 | 33.99324 | 134.78811 | 14304 ft | 350 kts | 152° |
| 2026-05-07 14:03 | 33.97283 | 134.80413 | 13833 ft | 350 kts | 152° |
| 2026-05-07 14:03 | 33.95257 | 134.81997 | 13227 ft | 344 kts | 152° |
| 2026-05-07 14:04 | 33.93256 | 134.83559 | 12636 ft | 341 kts | 152° |
| 2026-05-07 14:04 | 33.91276 | 134.85103 | 12020 ft | 331 kts | 152° |
| 2026-05-07 14:04 | 33.89412 | 134.86656 | 11386 ft | 328 kts | 144° |
| 2026-05-07 14:04 | 33.88053 | 134.88909 | 10687 ft | 341 kts | 118° |
| 2026-05-07 14:05 | 33.87551 | 134.91723 | 10000 ft | 350 kts | 94° |
| 2026-05-07 14:05 | 33.87991 | 134.94520 | 9176 ft | 333 kts | 68° |
| 2026-05-07 14:05 | 33.89296 | 134.96686 | 8322 ft | 313 kts | 39° |
| 2026-05-07 14:05 | 33.91137 | 134.97893 | 7543 ft | 294 kts | 18° |
| 2026-05-07 14:06 | 33.93051 | 134.98633 | 6852 ft | 286 kts | 13° |
| 2026-05-07 14:06 | 33.94962 | 134.99263 | 6174 ft | 287 kts | 12° |
| 2026-05-07 14:06 | 33.96891 | 134.99869 | 5483 ft | 293 kts | 12° |
| 2026-05-07 14:06 | 33.98910 | 135.00495 | 4808 ft | 297 kts | 12° |
| 2026-05-07 14:07 | 34.00907 | 135.00833 | 4246 ft | 295 kts | 353° |
| 2026-05-07 14:07 | 34.02796 | 134.99984 | 3799 ft | 289 kts | 322° |
| 2026-05-07 14:07 | 34.04046 | 134.98147 | 3332 ft | 286 kts | 294° |
| 2026-05-07 14:07 | 34.04593 | 134.95865 | 2890 ft | 281 kts | 280° |
| 2026-05-07 14:08 | 34.04995 | 134.93570 | 2668 ft | 280 kts | 281° |
| 2026-05-07 14:08 | 34.05562 | 134.91327 | 2543 ft | 280 kts | 289° |
| 2026-05-07 14:08 | 34.06433 | 134.89246 | 2500 ft | 271 kts | 298° |
| 2026-05-07 14:08 | 34.07361 | 134.87380 | 2484 ft | 249 kts | 298° |
| 2026-05-07 14:09 | 34.08214 | 134.85644 | 2479 ft | 235 kts | 298° |
| 2026-05-07 14:09 | 34.08889 | 134.83877 | 2461 ft | 229 kts | 286° |
| 2026-05-07 14:09 | 34.09264 | 134.82015 | 2491 ft | 229 kts | 280° |
| 2026-05-07 14:09 | 34.09606 | 134.80176 | 2523 ft | 222 kts | 281° |
| 2026-05-07 14:10 | 34.09978 | 134.78394 | 2512 ft | 217 kts | 282° |
| 2026-05-07 14:10 | 34.10305 | 134.76623 | 2467 ft | 216 kts | 279° |
| 2026-05-07 14:10 | 34.10600 | 134.74865 | 2146 ft | 210 kts | 279° |
| 2026-05-07 14:10 | 34.10912 | 134.73175 | 1874 ft | 204 kts | 279° |
| 2026-05-07 14:11 | 34.11222 | 134.71547 | 1613 ft | 192 kts | 279° |
| 2026-05-07 14:11 | 34.11512 | 134.70022 | 1362 ft | 180 kts | 279° |
| 2026-05-07 14:11 | 34.11783 | 134.68604 | 1113 ft | 166 kts | 279° |
| 2026-05-07 14:11 | 34.12029 | 134.67318 | 882 ft | 150 kts | 281° |
| 2026-05-07 14:12 | 34.12268 | 134.66112 | 713 ft | 147 kts | 280° |
| 2026-05-07 14:12 | 34.12507 | 134.64917 | 531 ft | 145 kts | 280° |
| 2026-05-07 14:12 | 34.12715 | 134.63735 | 332 ft | 143 kts | 279° |
| 2026-05-07 14:12 | 34.12934 | 134.62535 | 102 ft | 147 kts | 279° |
| 2026-05-07 14:13 | 34.13136 | 134.61395 | 28 ft | 121 kts | 283° |
| 2026-05-07 14:13 | 34.13254 | 134.60773 | 27 ft | 33 kts | 283° |
| 2026-05-07 14:13 | 34.13311 | 134.60468 | 28 ft | 36 kts | 282° |
| 2026-05-07 14:13 | 34.13355 | 134.60230 | 30 ft | 21 kts | 284° |
| 2026-05-07 14:14 | 34.13442 | 134.60172 | 29 ft | 13 kts | 8° |
| 2026-05-07 14:14 | 34.13509 | 134.60201 | 28 ft | 4 kts | 49° |
| 2026-05-07 14:14 | 34.13519 | 134.60239 | 28 ft | 7 kts | 88° |
| 2026-05-07 14:14 | 34.13506 | 134.60335 | 28 ft | 13 kts | 102° |
| 2026-05-07 14:15 | 34.13485 | 134.60449 | 28 ft | 15 kts | 102° |
| 2026-05-07 14:15 | 34.13462 | 134.60574 | 27 ft | 16 kts | 102° |
| 2026-05-07 14:15 | 34.13436 | 134.60711 | 27 ft | 17 kts | 103° |
| 2026-05-07 14:15 | 34.13409 | 134.60860 | 27 ft | 19 kts | 103° |
| 2026-05-07 14:16 | 34.13379 | 134.61018 | 27 ft | 20 kts | 102° |
| 2026-05-07 14:16 | 34.13348 | 134.61186 | 27 ft | 21 kts | 102° |
| 2026-05-07 14:16 | 34.13318 | 134.61350 | 27 ft | 20 kts | 102° |
| 2026-05-07 14:16 | 34.13286 | 134.61518 | 28 ft | 20 kts | 103° |
| 2026-05-07 14:17 | 34.13256 | 134.61683 | 28 ft | 14 kts | 103° |
| 2026-05-07 14:17 | 34.13264 | 134.61742 | 28 ft | 5 kts | 40° |
| 2026-05-07 14:17 | 34.13297 | 134.61758 | 28 ft | 6 kts | 15° |
| 2026-05-07 14:17 | 34.13335 | 134.61770 | 28 ft | 4 kts | 13° |
| 2026-05-07 14:18 | 34.13351 | 134.61774 | 28 ft | 2 kts | 13° |
| 2026-05-07 14:18 | 34.13364 | 134.61778 | 28 ft | 2 kts | 13° |
| 2026-05-07 14:18 | 34.13370 | 134.61779 | 28 ft | 0 kts | 13° |